Time;durP1;ratioP1;P1;durP2;ratioP2;P2;SDS_P1;SDS_P2;PMS_P1;PMS_P2;Temp;Humidity;BMP_temperature;BMP_pressure;BME280_temperature;BME280_humidity;BME280_pressure;Samples;Min_cycle;Max_cycle;Signal;HPM_P1;HPM_P2
2021/10/18 00:00:00;;;;;;;;;;;;;;;9.77;74.36;100201.91;5070762;28;19920;-73
2021/10/18 00:02:25;;;;;;;;;;;;;;;9.75;74.68;100206.41;5071366;28;19923;-71
2021/10/18 00:04:51;;;;;;;;;;;;;;;9.71;74.59;100197.75;5070956;28;20014;-72
2021/10/18 00:07:16;;;;;;;;;;;;;;;9.63;74.68;100200.69;5071060;28;20348;-71
2021/10/18 00:09:41;;;;;;;;;;;;;;;9.60;75.16;100202.59;5070978;28;20428;-72
2021/10/18 00:12:06;;;;;;;;;;;;;;;9.59;75.30;100200.84;5052455;28;20428;-71
2021/10/18 00:14:32;;;;;;;;;;;;;;;9.53;75.37;100199.31;5070878;28;19920;-72
2021/10/18 00:16:57;;;;;;;;;;;;;;;9.45;75.25;100194.34;5052988;28;19923;-72
2021/10/18 00:19:22;;;;;;;;;;;;;;;9.37;76.37;100192.91;5070906;28;19974;-72
2021/10/18 00:21:48;;;;;;;;;;;;;;;9.30;76.39;100197.53;5052144;28;19921;-71
2021/10/18 00:24:13;;;;;;;;;;;;;;;9.24;76.27;100197.78;5070704;28;19916;-72
2021/10/18 00:26:38;;;;;;;;;;;;;;;9.16;76.39;100195.44;5070601;28;19925;-71
2021/10/18 00:29:03;;;;;;;;;;;;;;;9.08;76.83;100191.38;5070828;28;19916;-72
2021/10/18 00:31:28;;;;;;;;;;;;;;;8.97;77.10;100202.28;5052003;28;19924;-71
2021/10/18 00:33:54;;;;;;;;;;;;;;;8.91;76.92;100205.13;5070692;28;20341;-73
2021/10/18 00:36:19;;;;;;;;;;;;;;;8.87;77.06;100207.00;5070407;28;19920;-71
2021/10/18 00:38:45;;;;;;;;;;;;;;;8.89;77.20;100199.09;5052161;28;19928;-71
2021/10/18 00:41:10;;;;;;;;;;;;;;;8.89;76.56;100191.19;5070045;28;19917;-71
2021/10/18 00:43:36;;;;;;;;;;;;;;;8.87;76.84;100199.13;5070438;28;19916;-71
2021/10/18 00:46:01;;;;;;;;;;;;;;;8.76;77.14;100198.63;5070969;28;20372;-71
2021/10/18 00:48:26;;;;;;;;;;;;;;;8.62;77.79;100201.75;5071013;28;19956;-71
2021/10/18 00:50:56;;;;;;;;;;;;;;;8.53;77.73;100202.06;5070816;28;19974;-71
2021/10/18 00:53:21;;;;;;;;;;;;;;;8.47;78.21;100202.28;5070202;28;19916;-71
2021/10/18 00:55:46;;;;;;;;;;;;;;;8.41;78.34;100197.22;5070545;28;19947;-71
2021/10/18 00:58:12;;;;;;;;;;;;;;;8.35;78.52;100196.50;5069983;28;20390;-71
2021/10/18 01:00:37;;;;;;;;;;;;;;;8.29;78.83;100193.19;5044083;28;20315;-72
2021/10/18 01:03:03;;;;;;;;;;;;;;;8.23;78.45;100198.69;5052180;28;19995;-71
2021/10/18 01:05:28;;;;;;;;;;;;;;;8.18;78.49;100189.16;5069979;28;20359;-70
2021/10/18 01:07:53;;;;;;;;;;;;;;;8.15;79.00;100196.31;5052582;28;19953;-71
2021/10/18 01:10:18;;;;;;;;;;;;;;;8.06;78.21;100192.19;5069801;28;19924;-71
2021/10/18 01:12:44;;;;;;;;;;;;;;;7.98;78.88;100188.13;5069714;28;19920;-71
2021/10/18 01:15:09;;;;;;;;;;;;;;;7.94;79.15;100182.09;5070154;28;19932;-71
2021/10/18 01:17:34;;;;;;;;;;;;;;;7.89;78.74;100189.25;5054084;28;20392;-71
2021/10/18 01:19:59;;;;;;;;;;;;;;;7.84;79.23;100183.28;5049251;28;19917;-75
2021/10/18 01:22:25;;;;;;;;;;;;;;;7.78;79.09;100180.84;5048898;28;19927;-71
2021/10/18 01:24:50;;;;;;;;;;;;;;;7.73;79.02;100187.13;5050106;28;19921;-71
2021/10/18 01:27:15;;;;;;;;;;;;;;;7.73;79.37;100191.50;5049909;28;19917;-72
2021/10/18 01:29:40;;;;;;;;;;;;;;;7.68;79.23;100201.28;5049889;28;20265;-71
2021/10/18 01:32:06;;;;;;;;;;;;;;;7.62;79.30;100199.69;5049367;28;20372;-71
2021/10/18 01:34:32;;;;;;;;;;;;;;;7.61;79.47;100203.25;5049969;28;19916;-72
2021/10/18 01:36:59;;;;;;;;;;;;;;;7.62;79.48;100202.31;5049729;28;20320;-71
2021/10/18 01:39:24;;;;;;;;;;;;;;;7.62;78.74;100209.34;5049919;28;19917;-71
2021/10/18 01:41:49;;;;;;;;;;;;;;;7.58;78.71;100199.84;5031032;28;19924;-71
2021/10/18 01:44:14;;;;;;;;;;;;;;;7.55;78.48;100198.16;5031577;28;19916;-71
2021/10/18 01:46:41;;;;;;;;;;;;;;;7.52;78.66;100203.50;5050543;28;20038;-71
2021/10/18 01:49:07;;;;;;;;;;;;;;;7.45;78.69;100201.97;5050375;28;19920;-71
2021/10/18 01:51:32;;;;;;;;;;;;;;;7.41;78.88;100201.22;5049008;28;19924;-71
2021/10/18 01:53:57;;;;;;;;;;;;;;;7.38;78.71;100193.41;5049617;28;20572;-70
2021/10/18 01:56:23;;;;;;;;;;;;;;;7.35;78.72;100200.53;5049962;28;20349;-71
2021/10/18 01:58:48;;;;;;;;;;;;;;;7.30;78.91;100204.13;5031662;28;19917;-70
2021/10/18 02:01:14;;;;;;;;;;;;;;;7.29;78.86;100202.44;5048684;28;20322;-71
2021/10/18 02:03:39;;;;;;;;;;;;;;;7.28;78.88;100195.44;5049033;28;19948;-71
2021/10/18 02:06:07;;;;;;;;;;;;;;;7.29;78.54;100201.56;5031396;28;20307;-71
2021/10/18 02:08:34;;;;;;;;;;;;;;;7.28;78.90;100200.69;5048915;28;19920;-73
2021/10/18 02:10:59;;;;;;;;;;;;;;;7.25;78.89;100200.78;5048221;28;19928;-72
2021/10/18 02:13:25;;;;;;;;;;;;;;;7.23;78.10;100196.50;5049008;28;19927;-71
2021/10/18 02:15:50;;;;;;;;;;;;;;;7.21;78.63;100195.66;5049262;28;19943;-71
2021/10/18 02:18:15;;;;;;;;;;;;;;;7.20;78.66;100196.59;5031128;28;19967;-71
2021/10/18 02:20:40;;;;;;;;;;;;;;;7.14;78.91;100183.63;5048014;28;19940;-72
2021/10/18 02:23:06;;;;;;;;;;;;;;;7.09;79.19;100174.16;5048925;28;19925;-73
2021/10/18 02:25:31;;;;;;;;;;;;;;;6.99;78.70;100177.97;5031752;28;19984;-73
2021/10/18 02:27:56;;;;;;;;;;;;;;;6.95;79.42;100183.31;5061479;28;19924;-73
2021/10/18 02:30:22;;;;;;;;;;;;;;;6.96;79.22;100185.88;5069129;28;20000;-73
2021/10/18 02:32:47;;;;;;;;;;;;;;;7.00;78.94;100187.53;5068918;28;19970;-72
2021/10/18 02:35:12;;;;;;;;;;;;;;;7.01;78.96;100191.00;5068794;28;19916;-73
2021/10/18 02:37:37;;;;;;;;;;;;;;;7.01;79.12;100176.13;5050870;28;19921;-73
2021/10/18 02:40:03;;;;;;;;;;;;;;;7.04;79.16;100183.94;5068439;28;20376;-73
2021/10/18 02:42:28;;;;;;;;;;;;;;;7.10;78.72;100183.72;5067570;28;19926;-72
2021/10/18 02:44:53;;;;;;;;;;;;;;;7.15;78.75;100188.00;5068608;28;19928;-73
2021/10/18 02:47:19;;;;;;;;;;;;;;;7.18;78.66;100180.03;5068864;28;19975;-70
2021/10/18 02:49:44;;;;;;;;;;;;;;;7.18;78.48;100180.88;5069043;28;19970;-72
2021/10/18 02:52:09;;;;;;;;;;;;;;;7.17;78.23;100176.56;5068230;28;19917;-70
2021/10/18 02:54:35;;;;;;;;;;;;;;;7.17;78.36;100173.94;5068717;28;19977;-70
2021/10/18 02:57:01;;;;;;;;;;;;;;;7.18;78.04;100175.66;5050287;28;19916;-70
2021/10/18 02:59:26;;;;;;;;;;;;;;;7.17;78.16;100178.34;5050909;28;20331;-70
2021/10/18 03:01:51;;;;;;;;;;;;;;;7.15;78.00;100173.13;5068392;28;20364;-70
2021/10/18 03:04:17;;;;;;;;;;;;;;;7.15;78.40;100169.66;5068752;28;19917;-70
2021/10/18 03:06:42;;;;;;;;;;;;;;;7.12;78.24;100178.47;5050909;28;19976;-71
2021/10/18 03:09:07;;;;;;;;;;;;;;;7.09;78.40;100179.41;5069300;28;19917;-70
2021/10/18 03:11:32;;;;;;;;;;;;;;;7.13;78.37;100176.69;5070065;28;19921;-70
2021/10/18 03:13:58;;;;;;;;;;;;;;;7.04;78.41;100175.22;5072671;28;19917;-69
2021/10/18 03:16:23;;;;;;;;;;;;;;;6.98;78.40;100181.47;5073368;28;19917;-71
2021/10/18 03:18:49;;;;;;;;;;;;;;;6.98;78.65;100176.22;5072362;28;20015;-71
2021/10/18 03:21:14;;;;;;;;;;;;;;;6.90;78.57;100178.22;5069584;28;19952;-73
2021/10/18 03:23:39;;;;;;;;;;;;;;;6.84;78.76;100176.63;5072953;28;19948;-72
2021/10/18 03:26:04;;;;;;;;;;;;;;;6.84;78.56;100178.34;5077490;28;20018;-70
2021/10/18 03:28:30;;;;;;;;;;;;;;;6.78;78.72;100184.63;5075993;28;19917;-72
2021/10/18 03:30:55;;;;;;;;;;;;;;;6.72;78.81;100186.56;5073462;28;19924;-72
2021/10/18 03:33:20;;;;;;;;;;;;;;;6.69;79.24;100179.63;5072637;28;19925;-72
2021/10/18 03:35:45;;;;;;;;;;;;;;;6.70;78.77;100180.53;5072533;28;19935;-71
2021/10/18 03:38:11;;;;;;;;;;;;;;;6.61;78.98;100177.22;5072203;28;19926;-71
2021/10/18 03:40:36;;;;;;;;;;;;;;;6.61;78.91;100179.00;5071686;28;19920;-72
2021/10/18 03:43:02;;;;;;;;;;;;;;;6.55;78.77;100174.78;5072094;28;19920;-72
2021/10/18 03:45:27;;;;;;;;;;;;;;;6.51;79.51;100174.91;5072200;28;20375;-72
2021/10/18 03:47:52;;;;;;;;;;;;;;;6.47;79.22;100175.88;5072311;28;20344;-73
2021/10/18 03:50:18;;;;;;;;;;;;;;;6.41;80.04;100166.44;5070998;28;19970;-72
2021/10/18 03:52:43;;;;;;;;;;;;;;;6.37;80.04;100168.25;5071876;28;19917;-72
2021/10/18 03:55:09;;;;;;;;;;;;;;;6.33;80.35;100177.09;5053893;28;19973;-71
2021/10/18 03:57:34;;;;;;;;;;;;;;;6.39;80.52;100176.94;5071941;28;19965;-72
2021/10/18 03:59:59;;;;;;;;;;;;;;;6.43;79.79;100177.72;5071589;28;19989;-70
2021/10/18 04:02:24;;;;;;;;;;;;;;;6.39;80.38;100174.31;5071734;28;19917;-72
2021/10/18 04:04:49;;;;;;;;;;;;;;;6.44;79.95;100166.34;5072531;28;19931;-72
2021/10/18 04:07:15;;;;;;;;;;;;;;;6.49;79.87;100164.44;5072134;28;19924;-71
2021/10/18 04:09:40;;;;;;;;;;;;;;;6.53;79.81;100162.63;5071518;28;19927;-74
2021/10/18 04:12:06;;;;;;;;;;;;;;;6.53;79.60;100162.63;5070667;28;20442;-73
2021/10/18 04:14:32;;;;;;;;;;;;;;;6.48;79.39;100164.50;5071847;28;19924;-72
2021/10/18 04:16:57;;;;;;;;;;;;;;;6.46;79.77;100161.94;5071853;28;20318;-74
2021/10/18 04:19:22;;;;;;;;;;;;;;;6.44;79.45;100154.09;5072515;28;19923;-73
2021/10/18 04:21:47;;;;;;;;;;;;;;;6.45;79.65;100161.06;5070911;28;19932;-73
2021/10/18 04:24:12;;;;;;;;;;;;;;;6.48;79.54;100154.88;5071171;28;20471;-71
2021/10/18 04:26:38;;;;;;;;;;;;;;;6.53;79.68;100163.47;5054577;28;19924;-72
2021/10/18 04:29:07;;;;;;;;;;;;;;;6.56;79.01;100163.41;5072432;28;20011;-72
2021/10/18 04:31:33;;;;;;;;;;;;;;;6.53;78.96;100165.25;5072334;28;20299;-71
2021/10/18 04:33:59;;;;;;;;;;;;;;;6.53;79.13;100173.97;5085017;28;19916;-71
2021/10/18 04:36:24;;;;;;;;;;;;;;;6.55;79.25;100171.31;5086770;28;19927;-72
2021/10/18 04:38:50;;;;;;;;;;;;;;;6.52;78.90;100172.25;5071183;28;19912;-71
2021/10/18 04:41:15;;;;;;;;;;;;;;;6.51;78.86;100177.53;5084479;28;19966;-72
2021/10/18 04:43:40;;;;;;;;;;;;;;;6.48;78.99;100175.84;5084209;28;19917;-70
2021/10/18 04:46:05;;;;;;;;;;;;;;;6.49;79.15;100174.06;5082451;28;20199;-72
2021/10/18 04:48:31;;;;;;;;;;;;;;;6.47;79.09;100175.88;5091461;28;19908;-71
2021/10/18 04:50:56;;;;;;;;;;;;;;;6.44;78.87;100182.91;5065524;28;19920;-72
2021/10/18 04:53:21;;;;;;;;;;;;;;;6.43;78.48;100182.97;5083629;28;19916;-71
2021/10/18 04:55:46;;;;;;;;;;;;;;;6.38;79.08;100190.09;5080856;28;19923;-71
2021/10/18 04:58:12;;;;;;;;;;;;;;;6.40;79.35;100189.16;5068643;28;19955;-72
2021/10/18 05:00:40;;;;;;;;;;;;;;;6.36;79.07;100197.97;5080758;28;19924;-74
2021/10/18 05:03:06;;;;;;;;;;;;;;;6.28;79.14;100201.69;5073786;28;19970;-71
2021/10/18 05:05:34;;;;;;;;;;;;;;;6.24;79.64;100195.66;5072173;28;19924;-71
2021/10/18 05:07:59;;;;;;;;;;;;;;;6.25;79.60;100199.97;5073540;28;19916;-73
2021/10/18 05:10:24;;;;;;;;;;;;;;;6.22;79.34;100206.16;5052075;28;19944;-71
2021/10/18 05:12:49;;;;;;;;;;;;;;;6.26;79.51;100208.72;5070443;28;20447;-72
2021/10/18 05:15:18;;;;;;;;;;;;;;;6.23;79.67;100205.28;5069737;28;19928;-69
2021/10/18 05:17:43;;;;;;;;;;;;;;;6.25;79.79;100205.22;5067455;28;19928;-69
2021/10/18 05:20:08;;;;;;;;;;;;;;;6.23;79.26;100213.13;5069315;28;19925;-69
2021/10/18 05:22:34;;;;;;;;;;;;;;;6.18;79.60;100212.38;5069313;28;19979;-70
2021/10/18 05:24:59;;;;;;;;;;;;;;;6.10;79.52;100201.22;5069559;28;19928;-70
2021/10/18 05:27:24;;;;;;;;;;;;;;;6.08;79.84;100196.91;5072284;28;19917;-69
2021/10/18 05:29:49;;;;;;;;;;;;;;;6.06;79.73;100196.97;5069681;28;20008;-70
2021/10/18 05:32:14;;;;;;;;;;;;;;;6.06;79.85;100193.50;5069078;28;19974;-70
2021/10/18 05:34:40;;;;;;;;;;;;;;;6.04;80.46;100192.69;5069902;28;19921;-72
2021/10/18 05:37:05;;;;;;;;;;;;;;;5.99;80.78;100191.00;5069538;28;19943;-70
2021/10/18 05:39:30;;;;;;;;;;;;;;;6.02;80.93;100196.16;5069124;28;19974;-70
2021/10/18 05:41:55;;;;;;;;;;;;;;;6.02;80.83;100192.69;5050648;28;20020;-69
2021/10/18 05:44:21;;;;;;;;;;;;;;;6.06;81.39;100194.34;5069370;28;19917;-71
2021/10/18 05:46:46;;;;;;;;;;;;;;;6.07;81.05;100187.34;5069126;28;19931;-72
2021/10/18 05:49:12;;;;;;;;;;;;;;;6.10;81.00;100195.97;5069200;28;19920;-70
2021/10/18 05:51:37;;;;;;;;;;;;;;;6.12;80.72;100194.19;5068414;28;19920;-69
2021/10/18 05:54:02;;;;;;;;;;;;;;;6.16;80.33;100190.59;5051083;28;19927;-73
2021/10/18 05:56:28;;;;;;;;;;;;;;;6.17;80.58;100188.84;5051743;28;19916;-71
2021/10/18 05:58:53;;;;;;;;;;;;;;;6.14;80.61;100188.94;5051823;28;20065;-71
2021/10/18 06:01:18;;;;;;;;;;;;;;;6.15;80.30;100190.63;5068630;28;19945;-71
2021/10/18 06:03:43;;;;;;;;;;;;;;;6.15;80.25;100194.13;5050915;28;19920;-71
2021/10/18 06:06:12;;;;;;;;;;;;;;;6.12;79.89;100196.81;5070841;28;19967;-72
2021/10/18 06:08:37;;;;;;;;;;;;;;;6.07;80.33;100193.44;5051436;28;19916;-72
2021/10/18 06:11:04;;;;;;;;;;;;;;;6.04;80.37;100193.53;5068664;28;19927;-70
2021/10/18 06:13:30;;;;;;;;;;;;;;;6.01;80.29;100204.06;5069245;28;20398;-72
2021/10/18 06:15:55;;;;;;;;;;;;;;;5.97;80.09;100190.19;5051805;28;19917;-72
2021/10/18 06:18:21;;;;;;;;;;;;;;;5.96;80.11;100198.94;5067901;28;19924;-70
2021/10/18 06:20:47;;;;;;;;;;;;;;;6.02;80.28;100195.31;5068703;28;20395;-69
2021/10/18 06:23:13;;;;;;;;;;;;;;;6.04;80.00;100196.16;5068733;28;20283;-70
2021/10/18 06:25:39;;;;;;;;;;;;;;;6.04;79.85;100209.22;5069202;28;19920;-69
2021/10/18 06:28:04;;;;;;;;;;;;;;;6.02;80.19;100211.03;5084171;28;19900;-73
2021/10/18 06:30:29;;;;;;;;;;;;;;;6.02;80.71;100211.03;5070485;28;19999;-72
2021/10/18 06:32:55;;;;;;;;;;;;;;;6.01;80.68;100218.03;5024902;28;19925;-72
2021/10/18 06:35:21;;;;;;;;;;;;;;;6.04;81.04;100224.09;5050062;28;19929;-73
2021/10/18 06:37:46;;;;;;;;;;;;;;;6.09;80.75;100225.69;5055300;28;19925;-74
2021/10/18 06:40:12;;;;;;;;;;;;;;;6.15;80.32;100229.91;5053377;28;19948;-73
2021/10/18 06:42:38;;;;;;;;;;;;;;;6.21;80.59;100224.53;5050978;28;20076;-73
2021/10/18 06:45:03;;;;;;;;;;;;;;;6.24;80.28;100232.31;5043044;28;19929;-73
2021/10/18 06:47:29;;;;;;;;;;;;;;;6.30;80.67;100228.66;5009095;28;19921;-74
2021/10/18 06:49:56;;;;;;;;;;;;;;;6.37;80.63;100230.25;5026420;28;19943;-73
2021/10/18 06:52:22;;;;;;;;;;;;;;;6.45;80.18;100231.78;5060014;28;19920;-74
2021/10/18 06:54:48;;;;;;;;;;;;;;;6.54;80.45;100233.28;5063150;28;19931;-74
2021/10/18 06:57:13;;;;;;;;;;;;;;;6.62;80.24;100233.97;5064406;28;20023;-74
2021/10/18 06:59:38;;;;;;;;;;;;;;;6.71;79.86;100232.00;5047201;28;19917;-74
2021/10/18 07:02:03;;;;;;;;;;;;;;;6.80;80.17;100226.53;5046054;28;20442;-73
2021/10/18 07:04:33;;;;;;;;;;;;;;;6.96;80.13;100224.34;5045773;28;19920;-73
2021/10/18 07:06:59;;;;;;;;;;;;;;;7.07;79.77;100220.53;5062556;28;19931;-74
2021/10/18 07:09:24;;;;;;;;;;;;;;;7.18;79.57;100230.72;5066136;28;19912;-75
2021/10/18 07:11:49;;;;;;;;;;;;;;;7.32;79.34;100230.31;5065749;28;20031;-73
2021/10/18 07:14:15;;;;;;;;;;;;;;;7.45;79.60;100223.81;5065459;28;20011;-75
2021/10/18 07:16:40;;;;;;;;;;;;;;;7.61;79.18;100236.50;5063376;28;19920;-75
2021/10/18 07:19:05;;;;;;;;;;;;;;;7.67;79.24;100225.81;5066410;28;19916;-75
2021/10/18 07:21:30;;;;;;;;;;;;;;;7.77;78.40;100227.25;5065625;28;19921;-74
2021/10/18 07:23:58;;;;;;;;;;;;;;;7.93;79.31;100232.88;5066287;28;19931;-73
2021/10/18 07:26:23;;;;;;;;;;;;;;;8.07;78.46;100235.94;5048651;28;19935;-73
2021/10/18 07:28:49;;;;;;;;;;;;;;;8.27;78.06;100230.06;5048510;28;19924;-74
2021/10/18 07:31:14;;;;;;;;;;;;;;;8.48;77.37;100239.00;5028119;28;19924;-75
2021/10/18 07:33:40;;;;;;;;;;;;;;;8.64;77.60;100235.84;5026901;28;19994;-73
2021/10/18 07:36:10;;;;;;;;;;;;;;;8.73;77.29;100236.41;5046367;28;20611;-74
2021/10/18 07:38:36;;;;;;;;;;;;;;;8.86;76.96;100231.59;5046397;28;19928;-76
2021/10/18 07:41:01;;;;;;;;;;;;;;;8.96;77.76;100233.00;5036593;28;19921;-74
2021/10/18 07:43:27;;;;;;;;;;;;;;;9.09;78.06;100230.78;5060066;28;19924;-75
2021/10/18 07:45:52;;;;;;;;;;;;;;;9.22;77.18;100225.91;5083814;28;20559;-72
2021/10/18 07:48:17;;;;;;;;;;;;;;;9.36;76.41;100234.16;5070668;28;19923;-72
2021/10/18 07:50:42;;;;;;;;;;;;;;;9.48;75.97;100232.88;5071242;28;20590;-70
2021/10/18 07:53:08;;;;;;;;;;;;;;;9.64;76.03;100227.84;5037122;28;20007;-71
2021/10/18 07:55:36;;;;;;;;;;;;;;;9.73;76.17;100237.19;5071936;28;19999;-71
2021/10/18 07:58:01;;;;;;;;;;;;;;;9.75;75.86;100238.00;5071036;28;19917;-71
2021/10/18 08:00:26;;;;;;;;;;;;;;;9.86;76.17;100241.91;5071258;28;19928;-71
2021/10/18 08:02:51;;;;;;;;;;;;;;;10.00;75.75;100241.38;5053006;28;19917;-70
2021/10/18 08:05:17;;;;;;;;;;;;;;;10.17;75.20;100248.63;5070965;28;20015;-70
2021/10/18 08:07:48;;;;;;;;;;;;;;;10.34;74.39;100255.88;5070637;28;19916;-71
2021/10/18 08:10:15;;;;;;;;;;;;;;;10.51;74.20;100250.75;5052041;28;19928;-73
2021/10/18 08:12:40;;;;;;;;;;;;;;;10.70;73.44;100258.75;5071025;28;19931;-70
2021/10/18 08:15:06;;;;;;;;;;;;;;;10.88;73.82;100253.63;5071108;28;19916;-71
2021/10/18 08:17:31;;;;;;;;;;;;;;;11.07;72.31;100249.25;5053553;28;19928;-71
2021/10/18 08:19:56;;;;;;;;;;;;;;;11.18;73.11;100247.00;5047265;28;20151;-72
2021/10/18 08:22:21;;;;;;;;;;;;;;;11.31;71.80;100249.94;5054294;28;19920;-71
2021/10/18 08:24:47;;;;;;;;;;;;;;;11.48;71.66;100243.06;5062615;28;20585;-72
2021/10/18 08:27:12;;;;;;;;;;;;;;;11.58;65.73;100236.44;5064159;28;20405;-74
2021/10/18 08:29:37;;;;;;;;;;;;;;;11.77;65.04;100229.38;5064381;28;20348;-74
2021/10/18 08:32:02;;;;;;;;;;;;;;;11.96;64.40;100239.97;5041940;28;19979;-73
2021/10/18 08:34:28;;;;;;;;;;;;;;;12.14;64.46;100245.28;5045382;28;19921;-73
2021/10/18 08:36:53;;;;;;;;;;;;;;;12.30;63.70;100240.09;5045043;28;20012;-73
2021/10/18 08:42:05;;;;;;;;;;;;;;;12.64;62.61;100239.28;5063530;28;19927;-74
2021/10/18 08:44:31;;;;;;;;;;;;;;;12.80;59.92;100236.72;5064801;28;19955;-74
2021/10/18 08:47:01;;;;;;;;;;;;;;;13.14;59.93;100242.88;5046435;28;20442;-75
2021/10/18 08:49:27;;;;;;;;;;;;;;;13.77;59.16;100235.09;5063643;28;19959;-74
2021/10/18 08:51:52;;;;;;;;;;;;;;;14.64;56.28;100239.88;5063498;28;20545;-74
2021/10/18 08:54:17;;;;;;;;;;;;;;;15.49;53.57;100226.81;5064304;28;19982;-75
2021/10/18 08:56:43;;;;;;;;;;;;;;;16.31;51.42;100218.84;5062474;28;19989;-74
2021/10/18 08:59:09;;;;;;;;;;;;;;;17.03;48.74;100223.84;5064155;28;20009;-74
2021/10/18 09:01:43;;;;;;;;;;;;;;;17.43;46.40;100225.53;5064353;28;20494;-74
2021/10/18 09:04:11;;;;;;;;;;;;;;;17.86;45.31;100225.13;5064188;28;20391;-73
2021/10/18 09:06:43;;;;;;;;;;;;;;;18.33;44.51;100228.78;5064710;28;20610;-73
2021/10/18 09:09:08;;;;;;;;;;;;;;;18.75;42.75;100231.84;5063810;28;19920;-73
2021/10/18 09:11:35;;;;;;;;;;;;;;;19.21;41.69;100226.50;5062391;28;20135;-74
2021/10/18 09:14:08;;;;;;;;;;;;;;;19.73;40.94;100229.56;5046910;28;20056;-76
2021/10/18 09:16:34;;;;;;;;;;;;;;;20.33;39.45;100233.59;5026319;28;19924;-75
2021/10/18 09:19:01;;;;;;;;;;;;;;;20.49;38.94;100216.22;5043642;28;19921;-73
2021/10/18 09:21:27;;;;;;;;;;;;;;;20.56;38.31;100214.78;5043345;28;19928;-75
2021/10/18 09:23:53;;;;;;;;;;;;;;;20.56;37.81;100220.97;5044149;28;19997;-76
2021/10/18 09:26:22;;;;;;;;;;;;;;;20.30;38.72;100224.94;5025894;28;20372;-75
2021/10/18 09:28:51;;;;;;;;;;;;;;;20.49;38.12;100217.06;5043421;28;19921;-74
2021/10/18 09:31:17;;;;;;;;;;;;;;;20.85;36.89;100211.47;5043464;28;20069;-74
2021/10/18 09:33:47;;;;;;;;;;;;;;;21.05;37.00;100218.63;5043854;28;20505;-74
2021/10/18 09:36:16;;;;;;;;;;;;;;;21.21;37.45;100216.31;5043730;28;19952;-74
2021/10/18 09:38:42;;;;;;;;;;;;;;;21.13;36.50;100209.91;5026141;28;20031;-73
2021/10/18 09:41:08;;;;;;;;;;;;;;;21.26;36.65;100215.06;5041508;28;19928;-71
2021/10/18 09:43:36;;;;;;;;;;;;;;;21.47;35.80;100215.91;5025573;28;19944;-73
2021/10/18 10:52:42;;;;;;;;;;;;;;;17.70;44.62;100175.53;4964788;28;20023;-73
2021/10/18 10:55:22;;;;;;;;;;;;;;;17.79;44.43;100177.56;4965152;28;20357;-73
2021/10/18 10:57:49;;;;;;;;;;;;;;;17.88;44.05;100181.38;5046606;28;19920;-73
2021/10/18 11:00:32;;;;;;;;;;;;;;;17.98;43.29;100177.06;5046131;28;19924;-74
2021/10/18 11:03:16;;;;;;;;;;;;;;;17.88;42.85;100180.53;5028591;28;19961;-72
2021/10/18 11:05:57;;;;;;;;;;;;;;;17.84;42.89;100165.69;5046644;28;19980;-74
2021/10/18 11:08:31;;;;;;;;;;;;;;;18.01;43.05;100168.81;5046205;28;19921;-73
2021/10/18 11:10:56;;;;;;;;;;;;;;;18.20;43.00;100162.13;5045579;28;19929;-72
2021/10/18 11:13:21;;;;;;;;;;;;;;;18.29;42.58;100155.25;5027774;28;20457;-72
2021/10/18 11:15:46;;;;;;;;;;;;;;;18.34;42.15;100167.28;5046146;28;19920;-73
2021/10/18 11:18:22;;;;;;;;;;;;;;;18.33;41.79;100164.72;5041503;28;19920;-76
2021/10/18 11:20:47;;;;;;;;;;;;;;;18.24;41.77;100159.13;5065418;28;20003;-76
2021/10/18 11:23:12;;;;;;;;;;;;;;;18.26;42.84;100158.13;5064812;28;20057;-74
2021/10/18 11:25:39;;;;;;;;;;;;;;;18.26;41.47;100160.81;5066061;28;19927;-77
2021/10/18 11:28:07;;;;;;;;;;;;;;;18.26;41.99;100156.31;5066941;28;19920;-74
2021/10/18 11:30:33;;;;;;;;;;;;;;;18.24;41.39;100161.78;5047529;28;20291;-73
2021/10/18 11:33:01;;;;;;;;;;;;;;;18.17;41.75;100157.88;5066244;28;20686;-73
2021/10/18 11:35:27;;;;;;;;;;;;;;;18.20;41.92;100154.97;5066513;28;20065;-74
2021/10/18 11:37:56;;;;;;;;;;;;;;;18.30;42.01;100143.59;5066781;28;19955;-75
2021/10/18 11:40:23;;;;;;;;;;;;;;;18.36;42.62;100146.66;5048717;28;19920;-76
2021/10/18 11:42:52;;;;;;;;;;;;;;;18.42;41.65;100145.34;5064612;28;19921;-74
2021/10/18 11:45:19;;;;;;;;;;;;;;;18.45;42.16;100142.44;5065902;28;20551;-73
2021/10/18 11:47:44;;;;;;;;;;;;;;;18.43;42.11;100141.69;5065514;28;20252;-73
2021/10/18 11:50:09;;;;;;;;;;;;;;;18.37;41.94;100140.34;5061635;28;19933;-75
2021/10/18 11:52:47;;;;;;;;;;;;;;;18.30;41.16;100139.13;5046310;28;19959;-73
2021/10/18 11:55:14;;;;;;;;;;;;;;;18.19;42.02;100134.59;5045762;28;19971;-74
2021/10/18 11:57:42;;;;;;;;;;;;;;;18.13;41.38;100128.84;5045758;28;20343;-74
2021/10/18 12:00:40;;;;;;;;;;;;;;;18.11;41.41;100123.63;5045715;28;19920;-74
2021/10/18 12:03:06;;;;;;;;;;;;;;;18.07;40.83;100119.50;5045191;28;19925;-75
2021/10/18 12:05:51;;;;;;;;;;;;;;;18.01;41.10;100115.47;5045970;28;19974;-75
2021/10/18 12:08:17;;;;;;;;;;;;;;;18.08;41.65;100110.53;5045958;28;20007;-75
2021/10/18 12:10:44;;;;;;;;;;;;;;;18.12;41.76;100111.16;5067327;28;20396;-73
2021/10/18 12:13:14;;;;;;;;;;;;;;;18.14;41.02;100106.53;5068962;28;19921;-76
2021/10/18 12:16:14;;;;;;;;;;;;;;;18.12;40.89;100108.50;5070206;28;19923;-77
2021/10/18 12:18:42;;;;;;;;;;;;;;;18.18;41.57;100100.00;5017731;28;19916;-75
2021/10/18 12:21:10;;;;;;;;;;;;;;;18.17;41.91;100098.31;5072312;28;19920;-74
2021/10/18 12:23:37;;;;;;;;;;;;;;;18.14;41.99;100094.06;5071560;28;19963;-74
2021/10/18 12:26:05;;;;;;;;;;;;;;;18.14;42.16;100094.06;5070324;28;20325;-74
2021/10/18 12:28:41;;;;;;;;;;;;;;;18.06;42.04;100100.94;5053061;28;20368;-75
2021/10/18 12:31:23;;;;;;;;;;;;;;;18.09;41.45;100095.38;5070224;28;20303;-75
2021/10/18 12:33:58;;;;;;;;;;;;;;;18.13;42.01;100091.50;5069921;28;19916;-75
2021/10/18 12:36:23;;;;;;;;;;;;;;;18.14;41.34;100091.41;5070630;28;19924;-75
2021/10/18 12:38:48;;;;;;;;;;;;;;;18.21;41.77;100073.97;5070462;28;19920;-74
2021/10/18 12:41:18;;;;;;;;;;;;;;;18.20;41.57;100077.56;5069351;28;19923;-75
2021/10/18 12:43:44;;;;;;;;;;;;;;;18.15;42.58;100065.56;5070361;28;19927;-74
2021/10/18 12:46:16;;;;;;;;;;;;;;;18.12;42.79;100055.97;5070173;28;19920;-74
2021/10/18 12:48:52;;;;;;;;;;;;;;;18.15;42.77;100049.53;5069993;28;20011;-75
2021/10/18 12:51:36;;;;;;;;;;;;;;;18.17;43.17;100048.47;5052466;28;19942;-73
2021/10/18 12:54:17;;;;;;;;;;;;;;;18.20;43.50;100058.88;5070889;28;19917;-74
2021/10/18 12:56:42;;;;;;;;;;;;;;;18.21;43.56;100062.41;5052572;28;19917;-74
2021/10/18 12:59:08;;;;;;;;;;;;;;;18.20;43.93;100052.72;5070659;28;19928;-76
2021/10/18 13:01:33;;;;;;;;;;;;;;;18.19;43.51;100069.69;5049654;28;20023;-74
2021/10/18 13:04:15;;;;;;;;;;;;;;;18.13;44.11;100072.81;5070659;28;19969;-76
2021/10/18 13:06:40;;;;;;;;;;;;;;;18.10;44.25;100083.75;5070239;28;20388;-75
2021/10/18 13:09:05;;;;;;;;;;;;;;;18.06;44.73;100074.25;5052651;28;19917;-75
2021/10/18 13:11:30;;;;;;;;;;;;;;;18.06;44.23;100076.94;5052146;28;19921;-77
2021/10/18 13:13:56;;;;;;;;;;;;;;;18.03;44.10;100064.66;5015066;28;19920;-74
2021/10/18 13:16:21;;;;;;;;;;;;;;;18.04;44.26;100061.06;5049663;28;19924;-75
2021/10/18 13:18:48;;;;;;;;;;;;;;;18.03;44.30;100059.34;5032102;28;19921;-74
2021/10/18 13:21:14;;;;;;;;;;;;;;;18.04;45.16;100050.38;5048746;28;19916;-75
2021/10/18 13:23:40;;;;;;;;;;;;;;;18.03;44.59;100041.50;5050148;28;20036;-75
2021/10/18 13:26:05;;;;;;;;;;;;;;;18.05;45.18;100036.06;5049473;28;20698;-75
2021/10/18 13:28:30;;;;;;;;;;;;;;;18.02;45.76;100030.97;5049816;28;19935;-75
2021/10/18 13:30:55;;;;;;;;;;;;;;;18.03;45.40;100027.31;5049331;28;20273;-76
2021/10/18 13:33:21;;;;;;;;;;;;;;;17.97;46.51;100035.81;5049543;28;19917;-73
2021/10/18 13:35:47;;;;;;;;;;;;;;;18.01;47.25;100030.09;5031713;28;19920;-74
2021/10/18 13:38:12;;;;;;;;;;;;;;;18.02;45.89;100031.81;5049813;28;20390;-76
2021/10/18 13:40:39;;;;;;;;;;;;;;;18.03;45.59;100038.00;5049831;28;20313;-75
2021/10/18 13:43:06;;;;;;;;;;;;;;;17.99;45.69;100033.84;5031920;28;19927;-75
2021/10/18 13:45:32;;;;;;;;;;;;;;;17.96;45.62;100031.41;5049409;28;19928;-76
2021/10/18 13:47:57;;;;;;;;;;;;;;;17.91;45.95;100028.25;5049318;28;19919;-75